Time;durP1;ratioP1;P1;durP2;ratioP2;P2;SDS_P1;SDS_P2;PMS_P1;PMS_P2;Temp;Humidity;BMP_temperature;BMP_pressure;BME280_temperature;BME280_humidity;BME280_pressure;Samples;Min_cycle;Max_cycle;Signal;HPM_P1;HPM_P2
2024/02/12 00:01:36;;;;;;;3.10;1.40;;;;;;;10.80;72.29;98082.19;4856027;29;97293;-76
2024/02/12 00:04:02;;;;;;;2.28;1.40;;;;;;;10.88;72.67;98085.94;4871588;28;96958;-76
2024/02/12 00:06:29;;;;;;;1.98;1.58;;;;;;;10.81;72.51;98086.47;4856152;28;98558;-75
2024/02/12 00:08:55;;;;;;;3.83;2.00;;;;;;;10.82;72.60;98090.78;4837365;29;97522;-76
2024/02/12 00:11:21;;;;;;;3.83;1.95;;;;;;;10.84;72.28;98089.72;4856768;29;97200;-78
2024/02/12 00:13:46;;;;;;;3.08;1.83;;;;;;;10.80;72.74;98090.91;4840119;29;96947;-76
2024/02/12 00:16:12;;;;;;;2.47;1.67;;;;;;;10.90;72.75;98100.75;4871381;28;101640;-76
2024/02/12 00:18:37;;;;;;;3.10;1.23;;;;;;;10.88;72.76;98099.06;4840325;29;101438;-76
2024/02/12 00:21:03;;;;;;;1.92;1.20;;;;;;;10.80;72.46;98103.19;4856047;29;98012;-75
2024/02/12 00:23:29;;;;;;;4.57;1.45;;;;;;;10.87;72.17;98102.63;4855663;29;97436;-76
2024/02/12 00:25:54;;;;;;;2.97;1.40;;;;;;;10.76;72.36;98109.56;4849954;29;101157;-76
2024/02/12 00:28:22;;;;;;;2.70;1.20;;;;;;;10.64;72.56;98106.84;4871677;28;97484;-76
2024/02/12 00:30:48;;;;;;;3.25;1.50;;;;;;;10.61;72.78;98103.59;4856743;28;96774;-78
2024/02/12 00:33:14;;;;;;;3.50;1.42;;;;;;;10.72;72.47;98108.97;4841766;29;97020;-77
2024/02/12 00:35:41;;;;;;;1.63;1.10;;;;;;;10.79;72.35;98110.22;4854539;29;97863;-76
2024/02/12 00:38:07;;;;;;;2.00;1.30;;;;;;;10.67;72.29;98116.31;4853518;28;98107;-76
2024/02/12 00:40:34;;;;;;;4.03;1.50;;;;;;;10.68;72.76;98118.00;4838371;29;96921;-76
2024/02/12 00:43:00;;;;;;;2.85;1.23;;;;;;;10.63;72.82;98120.09;4837909;29;97021;-75
2024/02/12 00:45:27;;;;;;;4.28;1.83;;;;;;;10.61;72.76;98125.44;4837057;29;100942;-75
2024/02/12 00:47:55;;;;;;;3.85;2.15;;;;;;;10.67;72.50;98123.34;4836899;29;97885;-76
2024/02/12 00:50:21;;;;;;;4.70;1.80;;;;;;;10.67;72.40;98129.41;4836975;29;96877;-78
2024/02/12 00:52:47;;;;;;;2.90;1.50;;;;;;;10.72;72.31;98126.50;4836766;29;97043;-76
2024/02/12 00:55:15;;;;;;;2.17;1.50;;;;;;;10.60;72.64;98130.81;4830624;29;101207;-75
2024/02/12 00:57:40;;;;;;;4.07;1.70;;;;;;;10.62;72.64;98132.38;4836383;29;98010;-76
2024/02/12 01:00:12;;;;;;;3.38;1.70;;;;;;;10.63;72.12;98127.97;4839124;29;97371;-76
2024/02/12 01:02:40;;;;;;;;;;;;;;;10.60;72.38;98136.88;4836808;29;97344;-76
2024/02/12 01:05:08;;;;;;;4.03;1.63;;;;;;;10.68;72.27;98133.75;4821464;29;101204;-76
2024/02/12 01:07:35;;;;;;;2.72;1.77;;;;;;;10.71;72.24;98132.69;4836126;29;101611;-76
2024/02/12 01:10:02;;;;;;;3.17;1.95;;;;;;;10.77;71.88;98137.50;4820612;29;96854;-76
2024/02/12 01:12:28;;;;;;;2.85;1.67;;;;;;;10.73;72.17;98144.75;4837976;29;96832;-76
2024/02/12 01:14:54;;;;;;;2.88;1.90;;;;;;;10.75;71.79;98140.22;4832551;29;101653;-76
2024/02/12 01:17:21;;;;;;;2.75;1.63;;;;;;;10.73;71.68;98142.13;4836226;29;97598;-76
2024/02/12 01:19:47;;;;;;;3.72;1.48;;;;;;;10.72;71.52;98140.44;4821085;29;96918;-76
2024/02/12 01:22:15;;;;;;;2.20;1.52;;;;;;;10.74;71.32;98151.69;4837104;29;96927;-76
2024/02/12 01:24:41;;;;;;;2.38;1.20;;;;;;;10.70;71.51;98144.13;4836017;29;97463;-76
2024/02/12 01:27:06;;;;;;;2.33;1.35;;;;;;;10.71;71.52;98136.16;4851621;28;101122;-77
2024/02/12 01:29:33;;;;;;;1.30;1.10;;;;;;;10.70;71.71;98144.13;4836410;29;97035;-76
2024/02/12 01:32:00;;;;;;;1.40;1.00;;;;;;;10.73;71.09;98141.28;4837868;29;96705;-75
2024/02/12 01:34:28;;;;;;;1.83;1.17;;;;;;;10.76;71.30;98141.06;4826010;28;101624;-76
2024/02/12 01:36:54;;;;;;;2.85;1.73;;;;;;;10.71;71.47;98145.81;4857167;28;98081;-76
2024/02/12 01:39:20;;;;;;;3.65;1.70;;;;;;;10.67;71.28;98150.41;4840153;28;98313;-76
2024/02/12 01:41:45;;;;;;;3.05;1.30;;;;;;;10.62;71.47;98157.78;4856948;28;96883;-76
2024/02/12 01:44:13;;;;;;;1.98;1.23;;;;;;;10.70;71.22;98158.06;4841347;28;102033;-76
2024/02/12 01:46:39;;;;;;;1.92;1.20;;;;;;;10.62;71.60;98160.41;4858291;28;98600;-76
2024/02/12 01:49:07;;;;;;;1.77;1.13;;;;;;;10.68;71.46;98157.34;4866583;28;98147;-76
2024/02/12 01:51:33;;;;;;;1.52;1.13;;;;;;;10.50;71.62;98167.34;4842845;28;97462;-76
2024/02/12 01:54:00;;;;;;;2.42;1.42;;;;;;;10.55;71.65;98159.97;4857215;28;98213;-75
2024/02/12 01:56:27;;;;;;;1.70;1.00;;;;;;;10.67;71.79;98170.56;4855006;29;97480;-76
2024/02/12 01:58:54;;;;;;;3.83;1.15;;;;;;;10.52;71.43;98165.41;4847051;29;96818;-76
2024/02/12 02:01:19;;;;;;;1.85;1.02;;;;;;;10.54;71.46;98165.34;4836235;29;96857;-76
2024/02/12 02:03:46;;;;;;;1.77;0.95;;;;;;;10.41;71.75;98166.16;4838033;29;101524;-77
2024/02/12 02:06:12;;;;;;;1.55;1.13;;;;;;;10.42;71.92;98167.00;4853673;28;98295;-76
2024/02/12 02:08:39;;;;;;;1.52;1.02;;;;;;;10.45;72.10;98168.59;4833566;28;96821;-76
2024/02/12 02:11:05;;;;;;;1.00;0.60;;;;;;;10.37;72.05;98177.78;4841809;28;97707;-75
2024/02/12 02:13:33;;;;;;;1.05;0.90;;;;;;;10.41;72.19;98174.03;4857216;28;97592;-76
2024/02/12 02:15:59;;;;;;;1.52;0.85;;;;;;;10.46;71.94;98176.34;4852890;29;98114;-76
2024/02/12 02:18:24;;;;;;;1.23;0.95;;;;;;;10.55;71.67;98180.94;4833896;28;97138;-76
2024/02/12 02:20:50;;;;;;;2.33;0.80;;;;;;;10.50;71.93;98179.56;4859332;28;96840;-75
2024/02/12 02:23:16;;;;;;;1.10;0.93;;;;;;;10.42;72.14;98185.38;4843231;28;101345;-76
2024/02/12 02:25:42;;;;;;;1.58;1.10;;;;;;;10.37;72.45;98185.66;4861019;28;98184;-76
2024/02/12 02:28:07;;;;;;;1.33;0.90;;;;;;;10.50;71.95;98190.06;4834484;29;96876;-77
2024/02/12 02:30:33;;;;;;;1.88;1.38;;;;;;;10.64;71.78;98192.59;4859026;28;97297;-75
2024/02/12 02:32:59;;;;;;;3.92;1.55;;;;;;;10.68;72.02;98191.47;4877503;28;97942;-76
2024/02/12 02:35:25;;;;;;;2.53;1.30;;;;;;;10.65;71.85;98191.69;4861036;28;98438;-76
2024/02/12 02:37:50;;;;;;;0.98;0.88;;;;;;;10.64;71.88;98197.84;4846462;28;96927;-76
2024/02/12 02:40:16;;;;;;;1.10;0.80;;;;;;;10.49;71.65;98194.47;4860299;28;97162;-76
2024/02/12 02:42:44;;;;;;;1.38;0.98;;;;;;;10.51;71.58;98200.47;4861163;28;96944;-76
2024/02/12 02:45:09;;;;;;;1.67;1.00;;;;;;;10.57;71.32;98202.69;4833415;28;101547;-75
2024/02/12 02:47:37;;;;;;;1.25;0.90;;;;;;;10.54;71.28;98202.91;4860821;28;97201;-76
2024/02/12 02:50:04;;;;;;;2.90;1.30;;;;;;;10.65;70.65;98207.44;4861065;28;96822;-76
2024/02/12 02:52:32;;;;;;;1.92;1.20;;;;;;;10.70;70.86;98205.31;4875821;28;98089;-76
2024/02/12 02:54:58;;;;;;;2.35;1.38;;;;;;;10.71;70.92;98212.25;4860464;28;98063;-76
2024/02/12 02:57:23;;;;;;;1.38;1.27;;;;;;;10.68;70.68;98204.59;4844322;28;97183;-76
2024/02/12 02:59:48;;;;;;;2.53;1.55;;;;;;;10.66;70.52;98211.72;4876222;28;97090;-76
2024/02/12 03:02:14;;;;;;;1.30;1.00;;;;;;;10.43;70.73;98206.22;4841118;29;97637;-76
2024/02/12 03:04:42;;;;;;;1.50;1.00;;;;;;;10.38;70.96;98213.59;4825328;29;101218;-76
2024/02/12 03:07:10;;;;;;;3.78;1.13;;;;;;;10.31;70.74;98225.41;4853332;28;96873;-76
2024/02/12 03:09:36;;;;;;;1.95;1.08;;;;;;;10.38;70.58;98224.06;4861282;28;96867;-76
2024/02/12 03:12:02;;;;;;;1.67;1.10;;;;;;;10.42;70.62;98224.69;4860239;28;101499;-76
2024/02/12 03:14:27;;;;;;;1.42;1.27;;;;;;;10.54;70.65;98236.16;4843388;28;101235;-76
2024/02/12 03:16:54;;;;;;;1.85;1.48;;;;;;;10.52;69.94;98235.41;4859899;28;96876;-76
2024/02/12 03:19:19;;;;;;;2.45;1.10;;;;;;;10.45;70.16;98229.75;4859994;28;97238;-76
2024/02/12 03:21:49;;;;;;;1.27;1.00;;;;;;;10.51;69.73;98231.97;4860354;28;101483;-76
2024/02/12 03:24:14;;;;;;;1.58;1.27;;;;;;;10.51;70.05;98233.75;4861022;28;97524;-76
2024/02/12 03:26:40;;;;;;;2.05;1.13;;;;;;;10.43;69.85;98232.44;4847792;28;96880;-76
2024/02/12 03:29:05;;;;;;;2.00;1.25;;;;;;;10.40;69.75;98235.28;4861903;28;97005;-76
2024/02/12 03:31:31;;;;;;;2.67;1.48;;;;;;;10.38;69.98;98242.44;4843808;28;101486;-75
2024/02/12 03:33:56;;;;;;;5.70;1.33;;;;;;;10.35;69.94;98239.97;4859782;28;98092;-76
2024/02/12 03:36:22;;;;;;;2.25;1.48;;;;;;;10.36;69.19;98241.69;4860115;28;97336;-75
2024/02/12 03:38:48;;;;;;;2.42;1.45;;;;;;;10.32;69.45;98234.09;4825330;29;97159;-76
2024/02/12 03:41:18;;;;;;;2.35;1.60;;;;;;;10.28;69.50;98243.97;4868945;28;97563;-76
2024/02/12 03:43:44;;;;;;;2.55;1.50;;;;;;;10.29;69.50;98240.38;4859146;28;97533;-77
2024/02/12 03:46:19;;;;;;;2.33;1.52;;;;;;;10.27;69.52;98244.91;4828586;28;97292;-76
2024/02/12 03:59:51;;;;;;;3.53;1.83;;;;;;;10.34;68.98;98256.66;4863034;28;96908;-76
2024/02/12 04:02:18;;;;;;;2.92;1.50;;;;;;;10.28;69.29;98264.09;4844267;28;101603;-75
2024/02/12 04:04:44;;;;;;;2.88;1.65;;;;;;;10.39;69.10;98264.25;4859155;28;98080;-76
2024/02/12 04:07:09;;;;;;;2.22;2.00;;;;;;;10.35;69.17;98268.84;4859449;28;97258;-75
2024/02/12 04:09:41;;;;;;;4.10;1.70;;;;;;;10.38;68.88;98262.56;4859329;28;96766;-76
2024/02/12 04:12:11;;;;;;;4.30;1.85;;;;;;;10.33;69.19;98257.63;4860675;28;97602;-76
2024/02/12 04:14:42;;;;;;;3.55;1.92;;;;;;;10.50;68.67;98261.75;4859031;28;97850;-76
2024/02/12 04:17:13;;;;;;;2.63;1.70;;;;;;;10.45;68.54;98261.22;4844502;28;97341;-76
2024/02/12 04:19:39;;;;;;;3.25;1.98;;;;;;;10.48;68.46;98265.44;4859263;28;96910;-76
2024/02/12 04:22:09;;;;;;;4.65;1.77;;;;;;;10.52;68.44;98256.41;4827755;28;101734;-76
2024/02/12 04:24:42;;;;;;;4.10;1.73;;;;;;;10.49;68.38;98262.69;4874924;28;99316;-75
2024/02/12 04:27:08;;;;;;;3.95;2.33;;;;;;;10.55;68.58;98266.69;4836364;28;97426;-76
2024/02/12 04:29:36;;;;;;;2.33;1.83;;;;;;;10.59;68.13;98270.81;4858893;28;97381;-76
2024/02/12 04:32:05;;;;;;;5.07;1.70;;;;;;;10.62;68.35;98274.06;4842358;28;101487;-76
2024/02/12 04:34:33;;;;;;;4.47;2.20;;;;;;;10.56;68.17;98282.34;4858288;28;97514;-76
2024/02/12 04:37:00;;;;;;;2.47;1.80;;;;;;;10.57;68.06;98270.91;4876030;28;96836;-75
2024/02/12 04:39:26;;;;;;;2.85;2.17;;;;;;;10.61;67.91;98272.34;4858634;28;96955;-76
2024/02/12 04:41:52;;;;;;;2.75;1.70;;;;;;;10.59;68.20;98279.50;4858849;28;97961;-76
2024/02/12 04:44:18;;;;;;;3.03;1.73;;;;;;;10.58;68.38;98277.81;4872820;28;97384;-76
2024/02/12 04:46:43;;;;;;;2.10;1.83;;;;;;;10.52;68.57;98288.72;4852918;28;97252;-77
2024/02/12 04:49:09;;;;;;;3.05;1.75;;;;;;;10.50;68.73;98284.50;4843364;28;96895;-76
2024/02/12 04:51:38;;;;;;;1.77;1.40;;;;;;;10.61;68.03;98287.25;4858739;28;101249;-76
2024/02/12 04:54:03;;;;;;;2.13;1.48;;;;;;;10.61;68.64;98290.72;4824269;28;99503;-76
2024/02/12 04:56:29;;;;;;;3.28;1.63;;;;;;;10.63;68.55;98290.63;4840258;28;96936;-75
2024/02/12 04:58:58;;;;;;;2.63;1.98;;;;;;;10.63;68.31;98286.22;4858197;28;96854;-76
2024/02/12 05:01:26;;;;;;;2.40;1.58;;;;;;;10.64;68.75;98295.75;4826838;28;101412;-77
2024/02/12 05:03:53;;;;;;;2.58;1.60;;;;;;;10.65;68.26;98288.75;4856271;28;100801;-76
2024/02/12 05:06:19;;;;;;;2.17;1.70;;;;;;;10.69;67.87;98290.22;4845002;28;97935;-76
2024/02/12 05:08:46;;;;;;;3.75;1.92;;;;;;;10.71;68.00;98295.38;4842661;28;96882;-76
2024/02/12 05:11:14;;;;;;;2.03;1.48;;;;;;;10.71;67.97;98298.84;4865487;28;101236;-76
2024/02/12 05:13:39;;;;;;;2.17;1.50;;;;;;;10.62;68.25;98304.72;4842102;28;100883;-76
2024/02/12 05:16:07;;;;;;;2.83;1.52;;;;;;;10.60;68.13;98307.41;4839789;28;96877;-77
2024/02/12 05:24:02;;;;;;;3.30;1.80;;;;;;;10.57;67.77;98309.41;4860818;28;98082;-75
2024/02/12 05:26:28;;;;;;;3.40;2.38;;;;;;;10.59;67.71;98316.25;4859181;28;97439;-76
2024/02/12 05:28:53;;;;;;;2.53;1.90;;;;;;;10.54;67.82;98318.31;4859131;28;97268;-76
2024/02/12 05:31:19;;;;;;;4.43;1.90;;;;;;;10.55;67.75;98322.63;4826066;28;100748;-76
2024/02/12 05:33:44;;;;;;;3.78;2.33;;;;;;;10.58;67.90;98324.19;4864592;28;97425;-76
2024/02/12 05:36:17;;;;;;;4.32;2.33;;;;;;;10.57;67.90;98322.53;4845634;28;96942;-76
2024/02/12 05:38:46;;;;;;;3.42;2.08;;;;;;;10.54;67.66;98327.97;4849228;28;97315;-75
2024/02/12 05:41:15;;;;;;;3.95;2.17;;;;;;;10.62;67.50;98337.03;4846025;28;99062;-76
2024/02/12 05:43:41;;;;;;;3.15;2.28;;;;;;;10.53;67.70;98342.88;4847224;28;98065;-76
2024/02/12 05:46:06;;;;;;;3.55;1.80;;;;;;;10.55;67.50;98345.38;4852320;28;96839;-77
2024/02/12 05:48:33;;;;;;;4.30;2.28;;;;;;;10.57;67.53;98346.97;4853761;28;98242;-77
2024/02/12 05:50:59;;;;;;;2.95;2.03;;;;;;;10.62;67.41;98349.31;4848177;28;100734;-77
2024/02/12 05:53:28;;;;;;;4.60;2.22;;;;;;;10.59;67.03;98352.97;4858828;28;101675;-76
2024/02/12 05:55:55;;;;;;;6.00;2.63;;;;;;;10.60;67.08;98353.81;4851466;28;97346;-76
2024/02/12 05:58:24;;;;;;;6.63;2.53;;;;;;;10.60;67.21;98354.66;4844625;28;97333;-77
2024/02/12 06:00:49;;;;;;;4.50;2.70;;;;;;;10.62;66.88;98357.19;4857810;28;97590;-76
2024/02/12 06:03:15;;;;;;;8.13;2.83;;;;;;;10.66;66.89;98363.91;4844988;28;100679;-75
2024/02/12 06:05:41;;;;;;;5.85;2.78;;;;;;;10.64;67.12;98363.16;4854122;28;97267;-76
2024/02/12 06:08:07;;;;;;;6.65;3.00;;;;;;;10.56;67.06;98363.66;4857393;28;97024;-79
2024/02/12 06:10:33;;;;;;;5.85;3.05;;;;;;;10.57;66.88;98370.59;4869563;28;96947;-80
2024/02/12 07:07:55;;;;;;;4.35;2.30;;;;;;;10.80;65.02;98428.63;5178683;23;97513;-75
2024/02/12 07:10:23;;;;;;;4.45;1.92;;;;;;;10.73;65.27;98440.44;4878493;28;101047;-76
2024/02/12 07:12:49;;;;;;;7.18;2.72;;;;;;;10.71;65.40;98445.81;4869347;28;97265;-75
2024/02/12 07:15:15;;;;;;;3.22;2.15;;;;;;;10.67;65.56;98443.47;4863553;28;96926;-76
2024/02/12 07:17:40;;;;;;;4.47;2.28;;;;;;;10.63;65.38;98445.44;4861462;28;101580;-76
2024/02/12 07:20:09;;;;;;;7.97;1.88;;;;;;;10.59;65.59;98449.22;4860082;28;101011;-76
2024/02/12 07:22:35;;;;;;;4.03;2.42;;;;;;;10.59;65.61;98449.22;4878505;28;97203;-75
2024/02/12 07:25:02;;;;;;;5.10;2.53;;;;;;;10.60;65.53;98456.97;4860047;28;97059;-76
2024/02/12 07:27:27;;;;;;;7.22;2.38;;;;;;;10.56;65.79;98452.00;4861905;28;101133;-76
2024/02/12 07:29:53;;;;;;;3.55;1.70;;;;;;;10.67;65.97;98451.31;4862692;28;101452;-76
2024/02/12 07:32:19;;;;;;;6.30;2.00;;;;;;;10.77;65.74;98455.91;4859875;28;96998;-76
2024/02/12 07:34:45;;;;;;;4.03;2.72;;;;;;;10.69;65.78;98463.41;4872992;28;97441;-77
2024/02/12 07:37:11;;;;;;;3.30;1.95;;;;;;;10.70;65.59;98461.63;4875810;28;101365;-76
2024/02/12 07:39:39;;;;;;;3.45;1.85;;;;;;;10.67;65.72;98467.06;4869362;28;97757;-76
2024/02/12 07:42:09;;;;;;;5.53;2.33;;;;;;;10.69;65.94;98463.41;4877772;28;96891;-76
2024/02/12 07:44:34;;;;;;;4.53;2.25;;;;;;;10.69;65.97;98465.19;4865181;28;96891;-76
2024/02/12 07:47:03;;;;;;;3.83;2.20;;;;;;;10.75;65.92;98468.28;4866589;28;97493;-76
2024/02/12 07:49:30;;;;;;;5.25;2.40;;;;;;;10.78;65.78;98462.81;4852944;28;97792;-75
2024/02/12 07:51:56;;;;;;;4.70;2.08;;;;;;;10.81;65.58;98473.13;4887018;28;96843;-77
2024/02/12 07:54:22;;;;;;;4.57;2.53;;;;;;;10.91;65.51;98478.66;4873172;28;97013;-76
2024/02/12 07:56:47;;;;;;;3.83;2.22;;;;;;;10.90;65.71;98478.72;4857552;28;101002;-76
2024/02/12 07:59:13;;;;;;;4.93;2.33;;;;;;;10.88;65.74;98474.44;4876491;28;97373;-75
2024/02/12 08:01:39;;;;;;;4.53;2.58;;;;;;;10.98;65.69;98479.91;4869214;28;97224;-78
2024/02/12 08:04:04;;;;;;;5.07;2.45;;;;;;;10.92;65.71;98488.19;4865142;28;98045;-78
2024/02/12 08:06:30;;;;;;;4.13;2.15;;;;;;;10.92;65.80;98480.31;4862812;28;97769;-76
2024/02/12 08:08:56;;;;;;;6.47;2.42;;;;;;;11.00;65.60;98488.53;4861173;28;101557;-75
2024/02/12 08:11:22;;;;;;;3.88;2.22;;;;;;;11.02;65.20;98491.06;4861783;28;96788;-77
2024/02/12 08:13:48;;;;;;;4.63;2.33;;;;;;;11.06;65.26;98497.81;4864161;28;98762;-77
2024/02/12 08:16:14;;;;;;;4.45;2.53;;;;;;;11.10;64.98;98501.91;4874596;28;101258;-76
2024/02/12 08:18:39;;;;;;;4.40;2.50;;;;;;;11.13;64.95;98496.44;4878936;28;97873;-77
2024/02/12 08:21:05;;;;;;;6.43;2.63;;;;;;;11.23;64.65;98502.81;4866714;28;97615;-76
2024/02/12 08:23:30;;;;;;;4.05;2.50;;;;;;;11.25;64.87;98497.44;4866758;28;96814;-75
2024/02/12 08:25:56;;;;;;;4.28;2.65;;;;;;;11.09;64.99;98498.44;4846768;28;100539;-75
2024/02/12 08:28:24;;;;;;;6.00;2.60;;;;;;;10.95;64.85;98505.53;4850154;28;101362;-78
2024/02/12 08:30:52;;;;;;;4.38;2.60;;;;;;;10.91;65.39;98506.66;4833233;28;97324;-78
2024/02/12 08:33:17;;;;;;;5.95;2.95;;;;;;;10.97;65.45;98517.63;4862590;28;97807;-76
2024/02/12 08:35:43;;;;;;;4.75;2.63;;;;;;;11.10;64.83;98518.50;4850037;28;101298;-77
2024/02/12 08:38:09;;;;;;;4.28;2.60;;;;;;;11.17;64.60;98513.72;4860370;28;101416;-77
2024/02/12 08:40:36;;;;;;;5.97;2.63;;;;;;;11.13;64.99;98519.25;4873523;28;96797;-77
2024/02/12 08:43:05;;;;;;;4.95;3.08;;;;;;;11.09;64.54;98521.25;4846410;28;96879;-76
2024/02/12 08:45:31;;;;;;;6.07;2.90;;;;;;;11.15;65.05;98525.25;4876134;28;97382;-77
2024/02/12 08:47:57;;;;;;;4.22;2.85;;;;;;;11.16;64.90;98530.41;4863496;28;98521;-77
2024/02/12 08:50:23;;;;;;;3.67;2.40;;;;;;;11.15;65.29;98536.59;4854942;28;97027;-77
2024/02/12 08:52:53;;;;;;;5.82;2.67;;;;;;;11.12;65.23;98542.03;4883936;28;97196;-76
2024/02/12 08:55:18;;;;;;;4.15;2.20;;;;;;;11.20;65.13;98547.66;4871826;28;99858;-76
2024/02/12 08:57:44;;;;;;;4.30;2.80;;;;;;;11.31;64.74;98547.81;4858421;28;98058;-77
2024/02/12 09:00:11;;;;;;;4.95;2.65;;;;;;;11.38;65.00;98550.03;4875048;28;96855;-77
2024/02/12 09:02:37;;;;;;;3.83;2.90;;;;;;;11.43;64.93;98551.41;4866901;28;97193;-76
2024/02/12 09:05:03;;;;;;;7.07;2.60;;;;;;;11.51;64.50;98553.53;4877376;28;98887;-76
2024/02/12 09:07:29;;;;;;;5.28;2.97;;;;;;;11.52;64.44;98557.84;4888983;28;97288;-76
2024/02/12 09:09:55;;;;;;;4.85;2.88;;;;;;;11.46;64.78;98560.84;4862256;28;96920;-76
2024/02/12 09:12:21;;;;;;;7.22;2.67;;;;;;;11.47;64.33;98558.13;4872814;28;96929;-76
2024/02/12 09:14:46;;;;;;;6.00;3.05;;;;;;;11.50;64.33;98559.72;4862253;28;97511;-77
2024/02/12 09:17:15;;;;;;;8.13;3.53;;;;;;;11.47;63.92;98566.03;4872914;28;97556;-76
2024/02/12 09:19:41;;;;;;;4.78;2.58;;;;;;;11.51;64.14;98566.66;4863425;28;96779;-76
2024/02/12 09:22:09;;;;;;;5.40;3.00;;;;;;;11.49;63.73;98566.78;4863293;28;96892;-76
2024/02/12 09:24:40;;;;;;;7.43;3.05;;;;;;;11.61;63.63;98561.66;4861688;28;101272;-76
2024/02/12 09:27:06;;;;;;;5.40;3.00;;;;;;;11.83;63.51;98571.56;4869568;28;98157;-77
2024/02/12 09:29:32;;;;;;;4.80;2.72;;;;;;;11.92;63.32;98570.97;4866498;28;96785;-77
2024/02/12 09:31:58;;;;;;;5.30;2.45;;;;;;;11.93;63.23;98576.16;4863499;28;96884;-76
2024/02/12 09:34:23;;;;;;;5.35;2.20;;;;;;;12.06;62.78;98589.31;4885273;28;97632;-76
2024/02/12 09:36:49;;;;;;;5.80;3.33;;;;;;;12.09;63.20;98589.09;4868179;28;101167;-76
2024/02/12 09:39:15;;;;;;;8.57;2.53;;;;;;;12.12;62.49;98583.63;4870983;28;97238;-77
2024/02/12 09:41:47;;;;;;;5.38;2.58;;;;;;;12.18;62.27;98596.34;4875018;28;96951;-76
2024/02/12 09:44:12;;;;;;;;;;;;;;;12.02;62.77;98602.78;4856429;28;101038;-77
2024/02/12 09:46:39;;;;;;;6.07;3.05;;;;;;;12.71;72.38;98598.03;4863535;28;101281;-72
2024/02/12 09:49:05;;;;;;;6.78;2.38;;;;;;;12.71;64.24;98598.88;4864690;28;97889;-75
2024/02/12 09:51:31;;;;;;;13.75;3.08;;;;;;;12.56;61.87;98590.25;4848475;28;99301;-73
2024/02/12 09:53:57;;;;;;;6.57;2.60;;;;;;;12.57;61.70;98607.75;4866676;28;97508;-72
2024/02/12 09:56:24;;;;;;;6.40;2.60;;;;;;;12.55;61.77;98608.81;4844382;28;101585;-75
2024/02/12 09:58:49;;;;;;;2.40;2.00;;;;;;;12.43;61.63;98606.06;4853861;28;98049;-76
2024/02/12 10:01:15;;;;;;;4.45;2.47;;;;;;;12.52;61.48;98611.66;4866109;28;97398;-75
2024/02/12 10:03:43;;;;;;;7.55;2.00;;;;;;;12.41;61.22;98609.75;4879234;28;101591;-75
2024/02/12 10:06:12;;;;;;;7.72;1.98;;;;;;;12.45;61.47;98613.88;4850836;28;99714;-77
2024/02/12 10:08:38;;;;;;;5.82;2.35;;;;;;;12.45;61.04;98617.34;4859423;28;97380;-76
2024/02/12 10:11:05;;;;;;;5.18;1.98;;;;;;;12.39;60.74;98615.13;4862489;28;97998;-75
2024/02/12 10:13:31;;;;;;;3.30;1.58;;;;;;;12.44;60.63;98618.25;4850814;28;99305;-76
2024/02/12 10:15:56;;;;;;;3.58;1.90;;;;;;;12.47;60.54;98622.47;4850253;28;101349;-75
2024/02/12 10:18:22;;;;;;;3.22;2.25;;;;;;;12.37;60.44;98624.06;4850901;28;97335;-75
2024/02/12 10:20:48;;;;;;;5.10;2.35;;;;;;;12.44;60.03;98623.53;4859081;28;98497;-78
2024/02/12 10:23:15;;;;;;;4.03;2.08;;;;;;;12.31;60.22;98619.22;4866583;28;98255;-77
2024/02/12 10:25:51;;;;;;;3.05;1.80;;;;;;;12.20;59.97;98618.16;4835799;28;99729;-77
2024/02/12 10:28:17;;;;;;;3.63;1.85;;;;;;;12.18;60.59;98617.41;4867321;28;97391;-78
2024/02/12 10:30:44;;;;;;;5.30;2.15;;;;;;;12.21;60.46;98609.31;4838529;28;97425;-78
2024/02/12 10:33:10;;;;;;;4.18;1.92;;;;;;;12.26;60.50;98624.78;4853876;28;98073;-77
2024/02/12 10:35:40;;;;;;;3.97;1.80;;;;;;;12.22;60.48;98626.78;4866956;28;97679;-77
2024/02/12 10:38:06;;;;;;;3.88;2.00;;;;;;;12.17;60.32;98626.25;4873513;28;97611;-78
2024/02/12 10:40:57;;;;;;;13.32;2.45;;;;;;;12.21;60.62;98629.50;4857193;28;97540;-77
2024/02/12 10:43:24;;;;;;;6.73;1.93;;;;;;;12.40;60.97;98632.59;4854851;28;101266;-77
2024/02/12 10:45:50;;;;;;;3.67;1.90;;;;;;;12.56;61.05;98632.38;4869291;28;97401;-77
2024/02/12 10:48:16;;;;;;;4.95;1.80;;;;;;;12.51;59.73;98631.88;4855592;28;98662;-77
2024/02/12 10:50:45;;;;;;;4.30;2.00;;;;;;;12.40;59.81;98624.69;4847970;28;97422;-77
2024/02/12 10:53:14;;;;;;;4.88;2.58;;;;;;;12.58;59.39;98634.91;4871620;28;98299;-77
2024/02/12 10:55:39;;;;;;;3.28;1.88;;;;;;;12.58;59.50;98635.75;4870707;28;97997;-78
2024/02/12 10:58:05;;;;;;;4.32;2.03;;;;;;;12.64;59.27;98634.47;4859575;28;98093;-77
2024/02/12 11:00:32;;;;;;;6.72;2.20;;;;;;;12.62;59.06;98628.47;4887299;28;98207;-77
2024/02/12 11:03:00;;;;;;;5.95;2.15;;;;;;;12.67;58.78;98632.47;4857103;28;101471;-78
2024/02/12 11:05:27;;;;;;;5.45;2.20;;;;;;;12.65;58.64;98626.50;4856057;28;102171;-77
2024/02/12 11:08:20;;;;;;;6.80;2.00;;;;;;;12.64;58.46;98631.84;4878965;28;97447;-77
2024/02/12 11:10:48;;;;;;;3.40;1.85;;;;;;;12.63;58.13;98633.66;4854515;28;97980;-77
2024/02/12 11:13:17;;;;;;;4.28;1.85;;;;;;;12.61;58.08;98635.53;4866917;28;98003;-78
2024/02/12 11:15:50;;;;;;;8.35;1.90;;;;;;;12.64;58.00;98632.69;4869642;28;98958;-78
2024/02/12 11:18:15;;;;;;;6.00;1.88;;;;;;;12.57;58.65;98634.06;4867989;28;97065;-77
2024/02/12 11:20:50;;;;;;;3.00;1.50;;;;;;;12.57;58.31;98636.69;4864989;28;98059;-77
2024/02/12 11:23:23;;;;;;;4.70;1.67;;;;;;;12.46;57.63;98644.50;4851424;28;97637;-78
2024/02/12 11:25:49;;;;;;;4.78;1.73;;;;;;;12.43;58.18;98647.31;4851910;28;97580;-78
2024/02/12 11:28:15;;;;;;;4.85;1.88;;;;;;;12.47;58.76;98646.16;4865516;28;97185;-78
2024/02/12 11:30:42;;;;;;;4.43;1.90;;;;;;;12.44;58.86;98652.47;4850851;28;97990;-79
2024/02/12 11:33:09;;;;;;;3.35;2.13;;;;;;;12.52;58.86;98646.69;4865877;28;101147;-74
2024/02/12 11:35:37;;;;;;;4.93;1.77;;;;;;;12.55;57.98;98648.28;4855617;28;101130;-73
2024/02/12 11:38:04;;;;;;;3.28;1.60;;;;;;;12.58;57.82;98653.34;4873139;28;97388;-80
2024/02/12 11:43:12;;;;;;;3.88;1.40;;;;;;;12.54;57.96;98652.72;5275599;23;98040;-74
2024/02/12 11:45:38;;;;;;;9.80;1.70;;;;;;;12.52;57.92;98651.13;4859301;28;97536;-74
2024/02/12 11:48:10;;;;;;;2.80;1.52;;;;;;;12.50;57.21;98655.63;4860369;28;97219;-74
2024/02/12 11:50:35;;;;;;;6.40;1.33;;;;;;;12.53;57.12;98661.53;4865730;28;97455;-75
2024/02/12 11:53:01;;;;;;;3.45;2.17;;;;;;;12.54;58.03;98657.97;4844726;28;101945;-77
2024/02/12 11:55:27;;;;;;;14.57;2.30;;;;;;;12.75;57.27;98668.81;4879498;28;96830;-78
2024/02/12 11:57:53;;;;;;;3.50;1.67;;;;;;;12.77;57.11;98669.56;4848621;28;97128;-79
2024/02/12 12:00:20;;;;;;;3.95;1.40;;;;;;;12.68;56.53;98667.53;4867701;28;97006;-78
2024/02/12 12:02:46;;;;;;;2.53;1.52;;;;;;;12.80;57.33;98665.84;4861265;28;98054;-79
2024/02/12 12:05:18;;;;;;;6.90;2.20;;;;;;;12.94;60.83;98659.63;4861424;28;97476;-79
2024/02/12 12:07:46;;;;;;;5.65;2.35;;;;;;;12.94;59.30;98657.81;4860581;28;96821;-81
2024/02/12 12:10:12;;;;;;;7.32;2.50;;;;;;;13.56;66.25;98664.91;4877527;28;97414;-78
2024/02/12 12:12:38;;;;;;;3.45;2.13;;;;;;;13.59;59.48;98670.78;4860172;28;97413;-78
2024/02/12 12:15:06;;;;;;;2.47;1.88;;;;;;;13.61;58.73;98669.81;4859248;28;97443;-77
2024/02/12 12:17:33;;;;;;;3.53;1.83;;;;;;;13.66;57.20;98670.31;4860060;28;96877;-81
2024/02/12 12:20:00;;;;;;;4.20;1.92;;;;;;;13.57;55.71;98677.94;4856938;28;97472;-78
2024/02/12 12:22:27;;;;;;;5.05;1.80;;;;;;;13.65;55.17;98677.41;4841993;28;101581;-78
2024/02/12 12:24:57;;;;;;;2.95;1.65;;;;;;;13.66;55.32;98675.59;4865439;28;97946;-78
2024/02/12 12:27:27;;;;;;;2.47;1.38;;;;;;;13.54;55.71;98679.97;4852508;28;97048;-78
2024/02/12 12:29:54;;;;;;;2.75;1.45;;;;;;;13.58;55.02;98690.19;4840052;28;97140;-78
2024/02/12 12:32:20;;;;;;;6.13;1.35;;;;;;;13.55;56.46;98682.47;4831666;28;100809;-78
2024/02/12 12:34:46;;;;;;;3.35;1.90;;;;;;;13.47;56.37;98676.09;4840175;28;101829;-78
2024/02/12 12:37:13;;;;;;;3.38;1.92;;;;;;;13.27;55.79;98678.34;4855007;28;96850;-78
2024/02/12 12:39:44;;;;;;;6.40;2.30;;;;;;;13.23;55.48;98683.91;4865847;28;97245;-78
2024/02/12 12:42:10;;;;;;;5.32;2.15;;;;;;;13.17;55.75;98685.19;4855314;28;97566;-79
2024/02/12 12:44:39;;;;;;;3.75;2.10;;;;;;;13.13;55.96;98681.94;4857036;28;97586;-78